Time;durP1;ratioP1;P1;durP2;ratioP2;P2;SDS_P1;SDS_P2;PMS_P1;PMS_P2;Temp;Humidity;BMP_temperature;BMP_pressure;BME280_temperature;BME280_humidity;BME280_pressure;Samples;Min_cycle;Max_cycle;Signal;HPM_P1;HPM_P2
2021/06/06 00:01:19;;;;;;;19.73;10.27;;;17.00;99.90;;;;;;5078705;28;20283;-79
2021/06/06 00:03:46;;;;;;;21.73;10.90;;;17.00;99.90;;;;;;5094588;28;20183;-79
2021/06/06 00:06:14;;;;;;;21.43;10.77;;;17.00;99.90;;;;;;5089156;28;20185;-79
2021/06/06 00:08:40;;;;;;;22.43;11.50;;;16.90;99.90;;;;;;5093434;28;20650;-79
2021/06/06 00:11:17;;;;;;;25.47;10.90;;;16.90;99.90;;;;;;5094594;28;20196;-78
2021/06/06 00:13:43;;;;;;;25.67;11.20;;;16.80;99.90;;;;;;5085917;28;20238;-78
2021/06/06 00:16:13;;;;;;;20.70;11.07;;;16.90;99.90;;;;;;5093476;28;20180;-79
2021/06/06 00:18:39;;;;;;;18.93;10.47;;;16.90;99.90;;;;;;5104301;28;20217;-79
2021/06/06 00:21:04;;;;;;;20.23;11.03;;;16.80;99.90;;;;;;5094807;28;20200;-79
2021/06/06 00:23:32;;;;;;;18.93;11.37;;;16.80;99.90;;;;;;5095557;28;20180;-80
2021/06/06 00:25:58;;;;;;;22.33;11.43;;;16.70;99.90;;;;;;5078349;28;20165;-80
2021/06/06 00:28:24;;;;;;;23.07;11.83;;;16.70;99.90;;;;;;5078377;28;20232;-79
2021/06/06 00:30:49;;;;;;;25.83;11.77;;;16.60;99.90;;;;;;5061507;28;20223;-79
2021/06/06 00:33:15;;;;;;;23.47;11.97;;;16.60;99.90;;;;;;5078201;28;20183;-79
2021/06/06 00:35:40;;;;;;;21.00;11.90;;;16.60;99.90;;;;;;5095598;28;20173;-79
2021/06/06 00:38:06;;;;;;;24.10;11.50;;;16.60;99.90;;;;;;5095723;28;20539;-79
2021/06/06 00:40:32;;;;;;;20.30;11.00;;;16.50;99.90;;;;;;5078744;28;20287;-79
2021/06/06 00:42:58;;;;;;;20.83;11.43;;;16.60;99.90;;;;;;5095643;28;20203;-79
2021/06/06 00:45:25;;;;;;;24.13;11.97;;;16.60;99.90;;;;;;5079008;28;20578;-79
2021/06/06 00:47:51;;;;;;;21.37;10.90;;;16.60;99.90;;;;;;5078383;28;20226;-79
2021/06/06 00:50:23;;;;;;;21.90;11.30;;;16.60;99.90;;;;;;5078471;28;20710;-79
2021/06/06 00:52:49;;;;;;;17.97;10.40;;;16.60;99.90;;;;;;5078893;28;20279;-79
2021/06/06 00:55:15;;;;;;;18.37;10.90;;;16.50;99.90;;;;;;5078489;28;20611;-79
2021/06/06 00:57:40;;;;;;;20.50;10.73;;;16.50;99.90;;;;;;5078266;28;20184;-79
2021/06/06 01:00:12;;;;;;;16.50;9.53;;;16.50;99.90;;;;;;5078414;28;20180;-80
2021/06/06 01:02:38;;;;;;;16.50;9.43;;;16.50;99.90;;;;;;5095438;28;20197;-79
2021/06/06 01:05:15;;;;;;;16.27;9.67;;;16.40;99.90;;;;;;5078894;28;20184;-79
2021/06/06 01:07:41;;;;;;;17.10;8.73;;;16.40;99.90;;;;;;5095241;28;20185;-79
2021/06/06 01:10:07;;;;;;;15.93;9.17;;;16.50;99.90;;;;;;5077807;28;20274;-79
2021/06/06 01:12:33;;;;;;;14.43;8.47;;;16.40;99.90;;;;;;5099119;28;20250;-79
2021/06/06 01:15:17;;;;;;;17.07;8.67;;;16.40;99.90;;;;;;5099335;28;20171;-79
2021/06/06 01:18:09;;;;;;;15.50;8.83;;;16.40;99.90;;;;;;5083379;28;20196;-79
2021/06/06 01:21:09;;;;;;;20.27;9.53;;;16.30;99.90;;;;;;5098706;28;20631;-79
2021/06/06 01:23:58;;;;;;;16.57;9.17;;;16.30;99.90;;;;;;5099581;28;20234;-79
2021/06/06 01:26:54;;;;;;;15.53;9.53;;;16.30;99.90;;;;;;5084681;28;20248;-79
2021/06/06 01:29:38;;;;;;;16.67;9.10;;;16.20;99.90;;;;;;5099682;28;20210;-79
2021/06/06 01:32:32;;;;;;;14.17;9.43;;;16.20;99.90;;;;;;5081702;28;20354;-79
2021/06/06 01:35:02;;;;;;;17.20;9.40;;;16.20;99.90;;;;;;5081443;28;20223;-78
2021/06/06 01:37:28;;;;;;;17.33;9.13;;;16.30;99.90;;;;;;5098765;28;20230;-79
2021/06/06 01:40:04;;;;;;;16.57;9.17;;;16.30;99.90;;;;;;5098239;28;20253;-79
2021/06/06 01:42:37;;;;;;;17.47;9.60;;;16.30;99.90;;;;;;5081327;28;20211;-78
2021/06/06 01:45:09;;;;;;;18.83;10.13;;;16.20;99.90;;;;;;5098336;28;20617;-79
2021/06/06 01:47:35;;;;;;;18.57;9.73;;;16.10;99.90;;;;;;5099070;28;20296;-79
2021/06/06 01:50:09;;;;;;;17.20;9.17;;;16.10;99.90;;;;;;5082238;28;20200;-79
2021/06/06 01:52:35;;;;;;;15.90;9.20;;;16.20;99.90;;;;;;5103646;28;20197;-79
2021/06/06 01:55:03;;;;;;;18.60;10.23;;;16.10;99.90;;;;;;5084143;28;20734;-79
2021/06/06 01:57:28;;;;;;;17.53;10.83;;;16.10;99.90;;;;;;5100174;28;20203;-79
2021/06/06 01:59:54;;;;;;;18.40;9.53;;;16.10;99.90;;;;;;5100458;28;20176;-79
2021/06/06 02:02:20;;;;;;;20.93;10.03;;;16.10;99.90;;;;;;5082399;28;20691;-79
2021/06/06 02:04:46;;;;;;;20.20;10.17;;;16.10;99.90;;;;;;5099971;28;20608;-79
2021/06/06 02:07:17;;;;;;;19.37;10.20;;;16.00;99.90;;;;;;5100014;28;20196;-79
2021/06/06 02:09:52;;;;;;;19.33;9.53;;;16.00;99.90;;;;;;5083190;28;20268;-79
2021/06/06 02:12:18;;;;;;;14.63;8.33;;;16.00;99.90;;;;;;5099875;28;20201;-79
2021/06/06 02:14:45;;;;;;;17.67;8.63;;;16.00;99.90;;;;;;5100568;28;20268;-79
2021/06/06 02:17:20;;;;;;;15.03;8.20;;;16.00;99.90;;;;;;5099542;28;20206;-78
2021/06/06 02:19:45;;;;;;;15.63;7.70;;;15.90;99.90;;;;;;5093537;28;20188;-78
2021/06/06 02:22:12;;;;;;;15.93;8.00;;;15.90;99.90;;;;;;5119119;28;20185;-78
2021/06/06 02:24:38;;;;;;;13.90;7.67;;;15.90;99.90;;;;;;5103260;28;20191;-78
2021/06/06 02:27:07;;;;;;;13.53;7.93;;;16.00;99.90;;;;;;5100985;28;20220;-78
2021/06/06 02:29:58;;;;;;;14.10;7.67;;;16.00;99.90;;;;;;5097264;28;20621;-79
2021/06/06 02:32:34;;;;;;;13.00;6.87;;;16.00;99.90;;;;;;5080910;28;20683;-78
2021/06/06 02:35:21;;;;;;;15.13;7.93;;;16.00;99.90;;;;;;5103466;28;20180;-78
2021/06/06 02:38:06;;;;;;;14.73;8.27;;;16.00;99.90;;;;;;5102930;28;20224;-80
2021/06/06 02:40:35;;;;;;;15.10;7.83;;;16.00;99.90;;;;;;5085978;28;20204;-79
2021/06/06 02:43:22;;;;;;;13.30;7.87;;;16.00;99.90;;;;;;5085770;28;20184;-80
2021/06/06 02:45:49;;;;;;;13.13;7.90;;;15.90;99.90;;;;;;5088210;28;20192;-79
2021/06/06 02:48:25;;;;;;;12.63;7.60;;;15.90;99.90;;;;;;5085730;28;20215;-80
2021/06/06 02:50:50;;;;;;;13.37;7.70;;;15.90;99.90;;;;;;5101876;28;20249;-79
2021/06/06 02:53:21;;;;;;;13.07;7.53;;;15.90;99.90;;;;;;5085597;28;20181;-79
2021/06/06 02:55:48;;;;;;;14.60;8.13;;;15.90;99.90;;;;;;5102016;28;20574;-78
2021/06/06 02:58:39;;;;;;;14.90;8.43;;;15.90;99.90;;;;;;5085665;28;20646;-79
2021/06/06 03:01:08;;;;;;;14.83;8.07;;;15.90;99.90;;;;;;5085760;28;20204;-80
2021/06/06 03:03:36;;;;;;;14.43;7.87;;;15.90;99.90;;;;;;5086333;28;20184;-78
2021/06/06 03:06:05;;;;;;;14.67;8.27;;;15.90;99.90;;;;;;5086076;28;20184;-79
2021/06/06 03:08:30;;;;;;;15.83;8.07;;;15.90;99.90;;;;;;5085625;28;20279;-80
2021/06/06 03:10:56;;;;;;;15.43;8.20;;;15.90;99.90;;;;;;5102753;28;20652;-80
2021/06/06 03:13:26;;;;;;;13.50;7.80;;;15.90;99.90;;;;;;5085116;28;20628;-80
2021/06/06 03:15:54;;;;;;;14.00;7.83;;;16.00;99.90;;;;;;5085301;28;20633;-80
2021/06/06 03:18:20;;;;;;;12.37;7.97;;;15.90;99.90;;;;;;5085718;28;20571;-80
2021/06/06 03:20:47;;;;;;;13.67;7.47;;;15.90;99.90;;;;;;5084795;28;20276;-79
2021/06/06 03:23:15;;;;;;;15.17;7.73;;;15.80;99.90;;;;;;5084548;28;20177;-80
2021/06/06 03:25:51;;;;;;;12.00;8.03;;;15.80;99.90;;;;;;5095796;28;20188;-78
2021/06/06 03:28:17;;;;;;;15.77;8.47;;;15.70;99.90;;;;;;5094206;28;20189;-79
2021/06/06 03:30:47;;;;;;;13.67;7.90;;;15.70;99.90;;;;;;5076547;28;20775;-78
2021/06/06 03:33:20;;;;;;;15.20;8.30;;;15.70;99.90;;;;;;5077630;28;20180;-79
2021/06/06 03:35:46;;;;;;;14.47;8.40;;;15.70;99.90;;;;;;5094602;28;20193;-79
2021/06/06 03:38:12;;;;;;;16.87;8.70;;;15.70;99.90;;;;;;5077430;28;20580;-79
2021/06/06 03:40:40;;;;;;;13.30;7.93;;;15.70;99.90;;;;;;5077160;28;20615;-78
2021/06/06 03:43:06;;;;;;;14.60;8.80;;;15.70;99.90;;;;;;5094519;28;20177;-80
2021/06/06 03:45:32;;;;;;;13.83;7.90;;;15.60;99.90;;;;;;5076709;28;20611;-79
2021/06/06 03:47:58;;;;;;;14.03;8.03;;;15.60;99.90;;;;;;5076726;28;20196;-79
2021/06/06 03:50:30;;;;;;;16.57;8.87;;;15.60;99.90;;;;;;5077433;28;20248;-80
2021/06/06 03:52:56;;;;;;;12.83;8.37;;;15.60;99.90;;;;;;5076757;28;20161;-78
2021/06/06 03:55:21;;;;;;;13.00;8.10;;;15.60;99.90;;;;;;5094356;28;20298;-78
2021/06/06 03:57:47;;;;;;;13.60;8.57;;;15.60;99.90;;;;;;5093888;28;20176;-78
2021/06/06 04:00:16;;;;;;;15.97;8.30;;;15.60;99.90;;;;;;5077562;28;20603;-79
2021/06/06 04:02:42;;;;;;;12.33;7.80;;;15.60;99.90;;;;;;5076483;28;20208;-78
2021/06/06 04:05:09;;;;;;;12.87;8.17;;;15.50;99.90;;;;;;5076483;28;20177;-79
2021/06/06 04:07:34;;;;;;;14.57;8.80;;;15.50;99.90;;;;;;5093870;28;20211;-79
2021/06/06 04:10:01;;;;;;;15.33;8.53;;;15.60;99.90;;;;;;5076869;28;20262;-78
2021/06/06 04:12:27;;;;;;;14.83;8.47;;;15.60;99.90;;;;;;5077632;28;20189;-80
2021/06/06 04:14:52;;;;;;;13.20;8.00;;;15.50;99.90;;;;;;5093548;28;20191;-79
2021/06/06 04:17:18;;;;;;;13.07;7.87;;;15.60;99.90;;;;;;5076508;28;20581;-78
2021/06/06 04:19:43;;;;;;;13.70;7.77;;;15.60;99.90;;;;;;5076162;28;20212;-78
2021/06/06 04:22:09;;;;;;;13.70;8.10;;;15.60;99.90;;;;;;5076226;28;20211;-79
2021/06/06 04:24:35;;;;;;;16.53;8.17;;;15.70;99.90;;;;;;5093015;28;20189;-79
2021/06/06 04:27:00;;;;;;;12.37;8.50;;;15.70;99.90;;;;;;5093556;28;20197;-78
2021/06/06 04:29:26;;;;;;;12.47;7.13;;;15.60;99.90;;;;;;5076635;28;20267;-78
2021/06/06 04:31:51;;;;;;;13.90;8.40;;;15.60;99.90;;;;;;5095655;28;20193;-79
2021/06/06 04:34:17;;;;;;;13.77;7.60;;;15.60;99.90;;;;;;5078080;28;20184;-79
2021/06/06 04:36:47;;;;;;;13.03;7.87;;;15.60;99.90;;;;;;5076925;28;20215;-79
2021/06/06 04:39:13;;;;;;;12.60;7.80;;;15.60;99.90;;;;;;5093449;28;20259;-79
2021/06/06 04:41:38;;;;;;;14.37;8.33;;;15.60;99.90;;;;;;5093795;28;20220;-78
2021/06/06 04:44:04;;;;;;;10.53;7.17;;;15.60;99.90;;;;;;5093706;28;20181;-78
2021/06/06 04:46:29;;;;;;;12.93;7.60;;;15.60;99.90;;;;;;5092730;28;20184;-79
2021/06/06 04:48:55;;;;;;;13.83;7.07;;;15.60;99.90;;;;;;5076346;28;20173;-79
2021/06/06 04:51:23;;;;;;;12.90;6.73;;;15.70;99.90;;;;;;5092379;28;20241;-78
2021/06/06 04:53:49;;;;;;;11.70;7.40;;;15.70;99.90;;;;;;5093133;28;20729;-78
2021/06/06 04:56:16;;;;;;;10.47;7.30;;;15.60;99.90;;;;;;5076181;28;20211;-78
2021/06/06 04:58:41;;;;;;;11.57;6.80;;;15.60;99.90;;;;;;5075951;28;20181;-78
2021/06/06 05:01:07;;;;;;;12.80;7.80;;;15.60;99.90;;;;;;5075864;28;20206;-78
2021/06/06 05:03:32;;;;;;;13.30;7.50;;;15.70;99.90;;;;;;5076092;28;20219;-79
2021/06/06 05:05:58;;;;;;;11.97;7.10;;;15.70;99.90;;;;;;5092947;28;20237;-79
2021/06/06 05:08:24;;;;;;;11.97;7.60;;;15.70;99.90;;;;;;5093228;28;20294;-78
2021/06/06 05:10:50;;;;;;;12.87;7.47;;;15.70;99.90;;;;;;5075570;28;20280;-79
2021/06/06 05:13:16;;;;;;;11.97;7.13;;;15.70;99.90;;;;;;5075313;28;20192;-79
2021/06/06 05:15:42;;;;;;;14.27;7.90;;;15.80;99.90;;;;;;5075155;28;20183;-79
2021/06/06 05:18:07;;;;;;;13.17;7.67;;;15.80;99.90;;;;;;5092438;28;20176;-78
2021/06/06 05:20:36;;;;;;;14.97;6.77;;;15.70;99.90;;;;;;5075262;28;20255;-79
2021/06/06 05:23:02;;;;;;;12.77;7.67;;;15.90;99.90;;;;;;5092365;28;20251;-79
2021/06/06 05:25:27;;;;;;;11.53;6.97;;;15.90;99.90;;;;;;5092986;28;20627;-79
2021/06/06 05:27:53;;;;;;;12.27;7.17;;;15.90;99.90;;;;;;5076233;28;20204;-78
2021/06/06 05:30:21;;;;;;;11.07;7.30;;;15.90;99.90;;;;;;5075694;28;20253;-78
2021/06/06 05:32:48;;;;;;;13.40;7.33;;;15.90;99.90;;;;;;5075695;28;20173;-78
2021/06/06 05:35:14;;;;;;;14.40;7.50;;;15.90;99.90;;;;;;5075570;28;20180;-79
2021/06/06 05:37:40;;;;;;;13.00;7.80;;;15.90;99.90;;;;;;5076085;28;20614;-78
2021/06/06 05:40:05;;;;;;;11.57;7.33;;;15.90;99.90;;;;;;5075383;28;20173;-79
2021/06/06 05:42:31;;;;;;;12.03;7.13;;;15.90;99.90;;;;;;5092739;28;20196;-78
2021/06/06 05:44:57;;;;;;;14.30;8.23;;;15.90;99.90;;;;;;5092932;28;20237;-79
2021/06/06 05:47:22;;;;;;;10.87;7.20;;;15.90;99.90;;;;;;5075695;28;20597;-78
2021/06/06 05:49:48;;;;;;;12.60;8.07;;;15.80;99.90;;;;;;5092614;28;20169;-78
2021/06/06 05:52:13;;;;;;;13.17;7.33;;;15.90;99.90;;;;;;5075572;28;20193;-79
2021/06/06 05:54:39;;;;;;;13.20;7.80;;;15.90;99.90;;;;;;5076009;28;20184;-79
2021/06/06 05:57:05;;;;;;;13.00;7.53;;;15.80;99.90;;;;;;5077105;28;20176;-79
2021/06/06 05:59:30;;;;;;;12.80;7.67;;;15.90;99.90;;;;;;5095972;28;20181;-78
2021/06/06 06:01:56;;;;;;;14.13;7.70;;;16.00;99.90;;;;;;5095772;28;20200;-78
2021/06/06 06:04:21;;;;;;;13.77;7.80;;;16.00;99.90;;;;;;5079170;28;20176;-78
2021/06/06 06:06:47;;;;;;;11.77;6.80;;;16.00;99.90;;;;;;5095763;28;20273;-78
2021/06/06 06:09:12;;;;;;;13.57;7.47;;;16.00;99.90;;;;;;5079067;28;20172;-78
2021/06/06 06:11:38;;;;;;;11.50;7.23;;;16.00;99.90;;;;;;5079017;28;20550;-78
2021/06/06 06:14:03;;;;;;;13.27;7.33;;;16.10;99.90;;;;;;5096576;28;20584;-79
2021/06/06 06:16:32;;;;;;;12.47;7.20;;;16.10;99.90;;;;;;5096434;28;20652;-79
2021/06/06 06:18:58;;;;;;;12.93;7.87;;;16.10;99.90;;;;;;5097037;28;20172;-79
2021/06/06 06:21:24;;;;;;;13.53;7.67;;;16.20;99.90;;;;;;5079575;28;20196;-80
2021/06/06 06:23:50;;;;;;;12.47;7.33;;;16.20;99.90;;;;;;5079621;28;20849;-79
2021/06/06 06:26:15;;;;;;;13.13;7.77;;;16.10;99.90;;;;;;5080067;28;20182;-79
2021/06/06 06:28:45;;;;;;;13.63;7.67;;;16.30;99.90;;;;;;5079846;28;20244;-78
2021/06/06 06:31:11;;;;;;;13.40;7.57;;;16.40;99.90;;;;;;5079930;28;20192;-79
2021/06/06 06:33:37;;;;;;;12.00;7.37;;;16.30;99.90;;;;;;5079699;28;20635;-79
2021/06/06 06:36:03;;;;;;;13.10;7.57;;;16.30;99.90;;;;;;5096150;28;20256;-79
2021/06/06 06:38:30;;;;;;;13.87;8.17;;;16.30;99.90;;;;;;5097329;28;20234;-79
2021/06/06 06:40:56;;;;;;;11.57;7.47;;;16.30;99.90;;;;;;5096634;28;20434;-79
2021/06/06 06:43:21;;;;;;;14.50;8.03;;;16.40;99.90;;;;;;5097022;28;20667;-79
2021/06/06 06:45:47;;;;;;;11.50;7.40;;;16.50;99.90;;;;;;5079434;28;20188;-79
2021/06/06 06:48:16;;;;;;;14.30;8.03;;;16.40;99.90;;;;;;5085293;28;20251;-79
2021/06/06 06:50:42;;;;;;;14.33;8.00;;;16.50;99.90;;;;;;5086992;28;20192;-79
2021/06/06 06:53:08;;;;;;;14.37;7.60;;;16.60;99.90;;;;;;5104188;28;20184;-79
2021/06/06 06:55:33;;;;;;;12.83;7.47;;;16.60;99.90;;;;;;5087630;28;20263;-78
2021/06/06 06:58:00;;;;;;;13.40;7.33;;;16.60;99.90;;;;;;5085116;28;20180;-79
2021/06/06 07:00:44;;;;;;;15.13;7.43;;;16.60;99.90;;;;;;5096601;28;20192;-79
2021/06/06 07:03:11;;;;;;;15.50;8.10;;;16.60;99.90;;;;;;5096401;28;20636;-79
2021/06/06 07:05:36;;;;;;;13.60;7.63;;;16.60;99.90;;;;;;5078719;28;20176;-77
2021/06/06 07:08:03;;;;;;;14.43;8.30;;;16.60;99.90;;;;;;5087851;28;20232;-77
2021/06/06 07:10:30;;;;;;;17.20;8.17;;;16.50;99.90;;;;;;5093764;28;20227;-77
2021/06/06 07:12:56;;;;;;;13.73;7.97;;;16.50;99.90;;;;;;5085722;28;20184;-77
2021/06/06 07:15:21;;;;;;;11.97;7.47;;;16.60;99.90;;;;;;5097581;28;20182;-78
2021/06/06 07:17:47;;;;;;;13.27;7.87;;;16.60;99.90;;;;;;5102215;28;20233;-78
2021/06/06 07:20:16;;;;;;;13.60;8.30;;;16.60;99.90;;;;;;5105850;28;20168;-79
2021/06/06 07:22:42;;;;;;;15.50;8.30;;;16.60;99.90;;;;;;5116085;28;20191;-79
2021/06/06 07:25:08;;;;;;;15.53;8.73;;;16.60;99.90;;;;;;5085662;28;20187;-79
2021/06/06 07:27:37;;;;;;;14.60;7.97;;;16.60;99.90;;;;;;5092853;28;20678;-80
2021/06/06 07:30:05;;;;;;;13.37;8.50;;;16.60;99.90;;;;;;5092224;28;20204;-78
2021/06/06 07:32:30;;;;;;;15.83;8.33;;;16.70;99.90;;;;;;5116168;28;20203;-79
2021/06/06 07:34:56;;;;;;;14.03;8.27;;;16.70;99.90;;;;;;5100384;28;20236;-79
2021/06/06 07:37:22;;;;;;;15.37;8.43;;;16.60;99.90;;;;;;5099189;28;20172;-78
2021/06/06 07:39:47;;;;;;;14.47;8.10;;;16.60;99.90;;;;;;5105527;28;20184;-79
2021/06/06 07:42:13;;;;;;;12.73;8.27;;;16.50;99.90;;;;;;5098871;28;20197;-78
2021/06/06 07:44:39;;;;;;;13.07;7.83;;;16.50;99.90;;;;;;5091475;28;20184;-78
2021/06/06 07:47:06;;;;;;;15.17;8.03;;;16.50;99.90;;;;;;5110481;28;20217;-79
2021/06/06 07:49:33;;;;;;;13.73;8.40;;;16.60;99.90;;;;;;5108638;28;20187;-78
2021/06/06 07:51:59;;;;;;;13.03;8.43;;;16.50;99.90;;;;;;5096536;28;20197;-78
2021/06/06 07:54:24;;;;;;;13.90;8.20;;;16.50;99.90;;;;;;5086595;28;20263;-78
2021/06/06 07:56:50;;;;;;;13.17;8.60;;;16.50;99.90;;;;;;5109454;28;20173;-81
2021/06/06 07:59:16;;;;;;;14.57;9.03;;;16.60;99.90;;;;;;5087039;28;20184;-78
2021/06/06 08:01:41;;;;;;;16.73;9.53;;;16.60;99.90;;;;;;5108513;28;20192;-80
2021/06/06 08:04:07;;;;;;;12.47;8.33;;;16.50;99.90;;;;;;5091043;28;20232;-78
2021/06/06 08:06:33;;;;;;;18.83;8.77;;;16.50;99.90;;;;;;5090012;28;20230;-80
2021/06/06 08:08:58;;;;;;;15.00;9.33;;;16.50;99.90;;;;;;5076035;28;20172;-78
2021/06/06 08:11:24;;;;;;;16.80;9.70;;;16.50;99.90;;;;;;5081095;28;20188;-78
2021/06/06 08:13:51;;;;;;;14.77;9.20;;;16.50;99.90;;;;;;5085387;28;20355;-80
2021/06/06 08:16:17;;;;;;;13.67;8.37;;;16.60;99.90;;;;;;5087748;28;20169;-78
2021/06/06 08:18:43;;;;;;;15.70;10.20;;;16.80;99.90;;;;;;5102250;28;20673;-79
2021/06/06 08:21:14;;;;;;;13.50;9.23;;;16.90;99.90;;;;;;5092708;28;20643;-78
2021/06/06 08:23:40;;;;;;;14.30;8.63;;;16.90;99.90;;;;;;5100082;28;20201;-79
2021/06/06 08:26:06;;;;;;;14.00;8.57;;;17.00;99.90;;;;;;5069205;28;20203;-78
2021/06/06 08:28:31;;;;;;;15.03;8.93;;;17.00;99.90;;;;;;5090298;28;20242;-80
2021/06/06 08:31:00;;;;;;;11.47;7.30;;;17.20;99.90;;;;;;5085252;28;20706;-79
2021/06/06 08:33:27;;;;;;;16.60;8.73;;;17.20;99.90;;;;;;5086919;28;20623;-80
2021/06/06 08:35:54;;;;;;;13.47;7.93;;;17.20;99.90;;;;;;5079631;28;20169;-79
2021/06/06 08:38:20;;;;;;;13.13;8.33;;;17.10;99.90;;;;;;5093017;28;20184;-79
2021/06/06 08:40:53;;;;;;;12.07;7.93;;;17.10;99.90;;;;;;5094662;28;20283;-79
2021/06/06 08:43:20;;;;;;;12.57;7.97;;;17.10;99.90;;;;;;5115626;28;20176;-80
2021/06/06 08:45:51;;;;;;;12.20;8.10;;;17.00;99.90;;;;;;5095687;28;20184;-81
2021/06/06 08:48:18;;;;;;;12.03;7.83;;;17.10;99.90;;;;;;5095005;28;20228;-79
2021/06/06 08:50:47;;;;;;;12.47;7.43;;;17.10;99.90;;;;;;5078396;28;20189;-79
2021/06/06 08:53:33;;;;;;;13.77;7.93;;;17.10;99.90;;;;;;5066569;28;20189;-79
2021/06/06 08:56:22;;;;;;;13.27;6.90;;;17.10;99.90;;;;;;5088952;28;20183;-79
2021/06/06 08:59:24;;;;;;;12.23;7.70;;;17.20;99.90;;;;;;5094455;28;20180;-79
2021/06/06 09:01:56;;;;;;;10.37;7.10;;;17.20;99.90;;;;;;5094246;28;20192;-79
2021/06/06 09:04:27;;;;;;;12.97;8.13;;;17.20;99.90;;;;;;5062367;28;20270;-79
2021/06/06 09:07:08;;;;;;;12.70;8.00;;;17.30;99.90;;;;;;5092045;28;20195;-79
2021/06/06 09:09:44;;;;;;;11.23;7.17;;;17.30;99.90;;;;;;5102243;28;20181;-80
2021/06/06 09:12:17;;;;;;;12.97;7.37;;;17.50;99.90;;;;;;5062754;28;20291;-79
2021/06/06 09:14:43;;;;;;;11.07;6.77;;;17.70;99.90;;;;;;5089276;28;20247;-79
2021/06/06 09:17:19;;;;;;;12.90;7.37;;;17.70;99.90;;;;;;5070678;28;20211;-79
2021/06/06 09:19:49;;;;;;;12.37;6.80;;;17.70;99.90;;;;;;5068899;28;20179;-77
2021/06/06 09:22:29;;;;;;;14.50;8.07;;;17.80;99.90;;;;;;5075369;28;20280;-78
2021/06/06 09:24:54;;;;;;;13.17;7.70;;;17.80;99.90;;;;;;5078214;28;20189;-79
2021/06/06 09:27:20;;;;;;;10.97;7.07;;;17.80;99.90;;;;;;5081715;28;20201;-79
2021/06/06 09:29:45;;;;;;;12.47;7.40;;;17.90;99.90;;;;;;5093344;28;20173;-78
2021/06/06 09:32:22;;;;;;;11.23;7.27;;;18.00;99.90;;;;;;5110925;28;20193;-79
2021/06/06 09:35:21;;;;;;;11.97;7.50;;;18.10;99.90;;;;;;5100893;28;20507;-78
2021/06/06 09:37:50;;;;;;;11.37;6.93;;;18.20;99.90;;;;;;5083409;28;20279;-80
2021/06/06 09:40:29;;;;;;;12.33;7.43;;;18.10;99.90;;;;;;5090643;28;20240;-78
2021/06/06 09:42:55;;;;;;;11.37;7.27;;;18.00;99.90;;;;;;5115274;28;20180;-77
2021/06/06 09:45:24;;;;;;;12.50;7.90;;;17.90;99.90;;;;;;5087415;28;20642;-77
2021/06/06 09:47:58;;;;;;;13.20;7.87;;;17.90;99.90;;;;;;5088679;28;20236;-77
2021/06/06 09:50:24;;;;;;;12.27;7.53;;;18.00;99.90;;;;;;5099938;28;20575;-78
2021/06/06 09:52:51;;;;;;;12.37;7.00;;;18.10;99.90;;;;;;5116262;28;20203;-78
2021/06/06 09:55:22;;;;;;;12.90;7.33;;;18.00;99.90;;;;;;5101412;28;20169;-78
2021/06/06 09:57:48;;;;;;;12.03;8.17;;;17.90;99.90;;;;;;5097457;28;20172;-78
2021/06/06 10:00:19;;;;;;;12.40;7.60;;;17.90;99.90;;;;;;5065826;28;20181;-79
2021/06/06 10:02:52;;;;;;;13.10;7.53;;;17.90;99.90;;;;;;5101624;28;20197;-78
2021/06/06 10:05:30;;;;;;;13.40;7.00;;;17.80;99.90;;;;;;5067870;28;20206;-78
2021/06/06 10:08:01;;;;;;;13.03;7.47;;;18.00;99.90;;;;;;5100675;28;20196;-79
2021/06/06 10:10:35;;;;;;;13.20;7.67;;;18.00;99.90;;;;;;5101249;28;20173;-79
2021/06/06 10:13:03;;;;;;;13.90;7.03;;;17.90;99.90;;;;;;5085246;28;20176;-79
2021/06/06 10:15:41;;;;;;;15.03;7.90;;;17.90;99.90;;;;;;5085695;28;20260;-80
2021/06/06 10:18:21;;;;;;;13.13;7.40;;;18.10;99.90;;;;;;5101536;28;20173;-78
2021/06/06 10:20:53;;;;;;;15.63;8.30;;;18.20;99.90;;;;;;5100174;28;20211;-77
2021/06/06 10:23:41;;;;;;;13.00;8.00;;;18.20;99.90;;;;;;5091845;28;20238;-79
2021/06/06 10:26:29;;;;;;;13.17;7.83;;;18.10;99.90;;;;;;5101271;28;20628;-78
2021/06/06 10:28:55;;;;;;;15.07;7.90;;;18.00;99.90;;;;;;5121476;28;20697;-81
2021/06/06 10:31:31;;;;;;;13.53;8.13;;;17.90;99.90;;;;;;5098614;28;20675;-78
2021/06/06 10:33:59;;;;;;;13.83;7.73;;;17.90;99.90;;;;;;5111415;28;20191;-78
2021/06/06 10:36:25;;;;;;;14.03;7.77;;;17.90;99.90;;;;;;5102380;28;20203;-78
2021/06/06 10:38:51;;;;;;;13.27;7.53;;;17.80;99.90;;;;;;5099075;28;20177;-78
2021/06/06 10:41:33;;;;;;;12.23;7.47;;;17.80;99.90;;;;;;5064008;28;20197;-78
2021/06/06 10:44:15;;;;;;;11.87;7.03;;;17.80;99.90;;;;;;5081067;28;20183;-78
2021/06/06 10:46:52;;;;;;;15.10;7.97;;;17.80;99.90;;;;;;5081699;28;20179;-78
2021/06/06 10:49:27;;;;;;;13.07;7.70;;;17.80;99.90;;;;;;5080086;28;20157;-78
2021/06/06 10:51:57;;;;;;;13.60;8.17;;;17.80;99.90;;;;;;5097227;28;20188;-78
2021/06/06 10:54:28;;;;;;;13.30;7.70;;;17.70;99.90;;;;;;5116058;28;20168;-78
2021/06/06 10:56:56;;;;;;;13.33;7.80;;;17.70;99.90;;;;;;5120028;28;20172;-78
2021/06/06 10:59:50;;;;;;;11.03;7.60;;;17.70;99.90;;;;;;5101597;28;20176;-78
2021/06/06 11:02:31;;;;;;;11.23;7.13;;;17.70;99.90;;;;;;5101342;28;20192;-77
2021/06/06 11:05:06;;;;;;;11.63;6.40;;;17.70;99.90;;;;;;5115378;28;20172;-78
2021/06/06 11:07:42;;;;;;;11.27;7.20;;;17.70;99.90;;;;;;5101215;28;20516;-78
2021/06/06 11:10:40;;;;;;;12.80;7.37;;;17.70;99.90;;;;;;5106767;28;20173;-78
2021/06/06 11:13:35;;;;;;;11.80;6.90;;;17.80;99.90;;;;;;5082454;28;20196;-78
2021/06/06 11:16:02;;;;;;;11.30;6.83;;;17.90;99.90;;;;;;5091442;28;20213;-77
2021/06/06 11:18:28;;;;;;;14.53;7.80;;;17.80;99.90;;;;;;5093825;28;20275;-77
2021/06/06 11:20:59;;;;;;;12.73;7.47;;;17.70;99.90;;;;;;5110291;28;20227;-77
2021/06/06 11:23:40;;;;;;;11.33;7.17;;;17.70;99.90;;;;;;5093873;28;20273;-77
2021/06/06 11:26:24;;;;;;;12.27;6.90;;;17.70;99.90;;;;;;5110861;28;20667;-77
2021/06/06 11:29:11;;;;;;;10.80;6.90;;;17.70;99.90;;;;;;5112758;28;20643;-77
2021/06/06 11:31:37;;;;;;;12.60;6.57;;;17.80;99.90;;;;;;5096620;28;20208;-79
2021/06/06 11:34:18;;;;;;;11.07;6.67;;;17.90;99.90;;;;;;5099476;28;20580;-78
2021/06/06 11:36:44;;;;;;;12.27;7.03;;;18.20;99.90;;;;;;5106302;28;20176;-78
2021/06/06 11:39:30;;;;;;;9.77;6.27;;;18.50;99.90;;;;;;5070772;28;20226;-78
2021/06/06 11:41:55;;;;;;;9.07;5.70;;;19.00;99.90;;;;;;5096149;28;20228;-79
2021/06/06 11:44:30;;;;;;;8.90;5.67;;;19.50;99.90;;;;;;5078469;28;20181;-79
2021/06/06 11:46:56;;;;;;;9.53;5.80;;;19.70;99.90;;;;;;5086274;28;20200;-79
2021/06/06 11:49:34;;;;;;;8.90;5.07;;;19.70;99.90;;;;;;5096874;28;20233;-79
2021/06/06 11:52:25;;;;;;;11.03;5.97;;;19.70;99.90;;;;;;5109660;28;20192;-78
2021/06/06 11:55:15;;;;;;;8.77;5.63;;;19.90;99.90;;;;;;5110954;28;20203;-78
2021/06/06 11:57:44;;;;;;;8.67;5.27;;;20.00;99.90;;;;;;5095568;28;20184;-78
2021/06/06 12:00:30;;;;;;;8.50;5.60;;;20.20;99.90;;;;;;5113142;28;20172;-79
2021/06/06 12:02:55;;;;;;;7.13;4.87;;;20.10;99.90;;;;;;5092769;28;20223;-78
2021/06/06 12:05:30;;;;;;;6.73;4.93;;;20.10;99.90;;;;;;5101806;28;20207;-78
2021/06/06 12:08:13;;;;;;;7.63;5.13;;;20.20;99.90;;;;;;5106037;28;20261;-78
2021/06/06 12:11:01;;;;;;;8.53;5.13;;;20.30;99.90;;;;;;5088969;28;20365;-78
2021/06/06 12:13:32;;;;;;;7.53;4.50;;;20.40;99.90;;;;;;5084472;28;20211;-79
2021/06/06 12:16:11;;;;;;;7.43;4.73;;;20.50;99.90;;;;;;5083474;28;20272;-78
2021/06/06 12:18:38;;;;;;;6.37;4.20;;;20.60;99.90;;;;;;5105236;28;20180;-77
2021/06/06 12:21:11;;;;;;;6.60;4.80;;;20.50;99.90;;;;;;5089699;28;20736;-80
2021/06/06 12:23:42;;;;;;;7.63;4.90;;;20.40;99.90;;;;;;5087254;28;20184;-79
2021/06/06 12:26:12;;;;;;;8.57;5.37;;;20.40;99.90;;;;;;5088797;28;20187;-83
2021/06/06 12:28:43;;;;;;;8.10;4.73;;;20.30;99.90;;;;;;5092390;28;20256;-79
2021/06/06 12:31:24;;;;;;;7.57;4.70;;;20.10;99.90;;;;;;5099476;27;20196;-80
2021/06/06 12:33:50;;;;;;;6.83;4.50;;;20.00;99.90;;;;;;5099715;28;20183;-80
2021/06/06 12:36:19;;;;;;;5.57;4.37;;;19.90;99.90;;;;;;5096472;28;20566;-80
2021/06/06 12:38:45;;;;;;;6.03;4.53;;;19.80;99.90;;;;;;5077957;28;20209;-81
2021/06/06 12:41:11;;;;;;;7.00;4.67;;;19.80;99.90;;;;;;5060210;28;20222;-79
2021/06/06 12:43:41;;;;;;;6.50;4.67;;;19.70;99.90;;;;;;5094909;28;20185;-79
2021/06/06 12:46:07;;;;;;;6.80;4.40;;;19.60;99.90;;;;;;5095247;28;20169;-80
2021/06/06 12:49:03;;;;;;;7.97;5.17;;;19.60;99.90;;;;;;5095926;28;20187;-78
2021/06/06 12:51:38;;;;;;;6.80;4.50;;;19.60;99.90;;;;;;5091006;28;20242;-79